^^
Saratoga-Weather Station Historical Data
Daily Summary for February 13, 2020 Units:  Both    English   Metric
Daily Weekly Monthly Yearly Custom
  High: Low: Average:
Temperature: 63.3 °F /  17.4 °C 42.8 °F /  6 °C 52.9 °F /  11.6 °C
Dew Point: 50.5 °F /  10.3 °C 29.1 °F /  -1.6 °C 42.3 °F /  5.7 °C
Humidity: 88% 48% 68%
Wind Speed: 13mph /  20.9km/h - 2mph /  3.2km/h
Wind Gust: 17mph /  27.4km/h - -
Wind- - South
Pressure: 30.2 in /  1022.0 hPa 29.9 in /  1011.9 hPa -
Precipitation: 0 in /  0.0 mm    
Historical Graphs
 
 
Tabular Data for February 13, 2020
Time Temperature Dew Point Pressure Wind Wind Speed Wind Gust Humidity Rainfall Rate (Hourly) solar
00:04 53.2 °F /  11.8 °C 44.1 °F /  6.7 °C 29.9in /  1012.5hPa Calm     71% 0in /  0.0mm 0 W/m2
00:09 53.1 °F /  11.7 °C 44.2 °F /  6.8 °C 29.9in /  1012.5hPa Calm   1mph /  1.6km/h 72% 0in /  0.0mm 0 W/m2
00:14 52.9 °F /  11.6 °C 44.1 °F /  6.7 °C 29.9in /  1012.5hPa Calm     72% 0in /  0.0mm 0 W/m2
00:19 52.5 °F /  11.4 °C 43.7 °F /  6.5 °C 29.9in /  1012.5hPa Calm     72% 0in /  0.0mm 0 W/m2
00:24 52.5 °F /  11.4 °C 44.1 °F /  6.7 °C 29.9in /  1012.5hPa Calm     73% 0in /  0.0mm 0 W/m2
00:29 52.5 °F /  11.4 °C 43.7 °F /  6.5 °C 29.9in /  1012.5hPa Calm   1mph /  1.6km/h 72% 0in /  0.0mm 0 W/m2
00:34 52.9 °F /  11.6 °C 44.1 °F /  6.7 °C 29.9in /  1012.5hPa Calm   2mph /  3.2km/h 72% 0in /  0.0mm 0 W/m2
00:39 53.1 °F /  11.7 °C 44.2 °F /  6.8 °C 29.9in /  1012.2hPa South 0.9mph /  1.4km/h 1mph /  1.6km/h 72% 0in /  0.0mm 0 W/m2
00:44 52.9 °F /  11.6 °C 44.1 °F /  6.7 °C 29.9in /  1012.5hPa Calm   1mph /  1.6km/h 72% 0in /  0.0mm 0 W/m2
00:49 52.9 °F /  11.6 °C 44.1 °F /  6.7 °C 29.9in /  1012.5hPa Calm     72% 0in /  0.0mm 0 W/m2
00:54 52.7 °F /  11.5 °C 43.9 °F /  6.6 °C 29.9in /  1012.2hPa South 0.9mph /  1.4km/h 1mph /  1.6km/h 72% 0in /  0.0mm 0 W/m2
00:59 52.5 °F /  11.4 °C 44.1 °F /  6.7 °C 29.9in /  1012.5hPa Calm     73% 0in /  0.0mm 0 W/m2
01:04 52.3 °F /  11.3 °C 43.9 °F /  6.6 °C 29.9in /  1012.5hPa Calm     73% 0in /  0.0mm 0 W/m2
01:09 52.2 °F /  11.2 °C 43.7 °F /  6.5 °C 29.9in /  1012.5hPa Calm     73% 0in /  0.0mm 0 W/m2
01:14 52.2 °F /  11.2 °C 44.1 °F /  6.7 °C 29.9in /  1012.5hPa Calm     74% 0in /  0.0mm 0 W/m2
01:19 52.2 °F /  11.2 °C 44.1 °F /  6.7 °C 29.9in /  1012.2hPa Calm     74% 0in /  0.0mm 0 W/m2
01:24 52 °F /  11.1 °C 43.9 °F /  6.6 °C 29.9in /  1012.5hPa Calm     74% 0in /  0.0mm 0 W/m2
01:29 52 °F /  11.1 °C 43.9 °F /  6.6 °C 29.9in /  1012.5hPa Calm     74% 0in /  0.0mm 0 W/m2
01:35 52.2 °F /  11.2 °C 44.1 °F /  6.7 °C 29.9in /  1012.5hPa Calm     74% 0in /  0.0mm 0 W/m2
01:40 52.2 °F /  11.2 °C 44.1 °F /  6.7 °C 29.9in /  1012.5hPa Calm   1mph /  1.6km/h 74% 0in /  0.0mm 0 W/m2
01:45 52.3 °F /  11.3 °C 44.2 °F /  6.8 °C 29.9in /  1012.5hPa Calm   1mph /  1.6km/h 74% 0in /  0.0mm 0 W/m2
01:50 52.3 °F /  11.3 °C 44.2 °F /  6.8 °C 29.9in /  1012.5hPa Calm     74% 0in /  0.0mm 0 W/m2
01:55 52.3 °F /  11.3 °C 44.2 °F /  6.8 °C 29.9in /  1012.5hPa Calm   1mph /  1.6km/h 74% 0in /  0.0mm 0 W/m2
02:00 52.2 °F /  11.2 °C 44.4 °F /  6.9 °C 29.9in /  1012.5hPa Calm     75% 0in /  0.0mm 0 W/m2
02:05 52.2 °F /  11.2 °C 44.4 °F /  6.9 °C 29.9in /  1012.5hPa Calm     75% 0in /  0.0mm 0 W/m2
02:10 52.2 °F /  11.2 °C 44.8 °F /  7.1 °C 29.9in /  1012.5hPa South 2mph /  3.2km/h 2mph /  3.2km/h 76% 0in /  0.0mm 0 W/m2
02:15 52.2 °F /  11.2 °C 44.8 °F /  7.1 °C 29.9in /  1012.5hPa Calm   1mph /  1.6km/h 76% 0in /  0.0mm 0 W/m2
02:20 52.2 °F /  11.2 °C 45.1 °F /  7.3 °C 29.9in /  1012.5hPa Calm     77% 0in /  0.0mm 0 W/m2
02:25 52.2 °F /  11.2 °C 45.1 °F /  7.3 °C 29.9in /  1012.5hPa Calm     77% 0in /  0.0mm 0 W/m2
02:30 52.2 °F /  11.2 °C 45.1 °F /  7.3 °C 29.9in /  1012.5hPa SSW 2mph /  3.2km/h 2mph /  3.2km/h 77% 0in /  0.0mm 0 W/m2
02:35 52.3 °F /  11.3 °C 45.3 °F /  7.4 °C 29.9in /  1012.5hPa SW 0.9mph /  1.4km/h 2mph /  3.2km/h 77% 0in /  0.0mm 0 W/m2
02:40 52.3 °F /  11.3 °C 45 °F /  7.2 °C 29.9in /  1012.5hPa SW 2mph /  3.2km/h 2mph /  3.2km/h 76% 0in /  0.0mm 0 W/m2
02:45 52.7 °F /  11.5 °C 45.3 °F /  7.4 °C 29.9in /  1012.5hPa WSW 0.9mph /  1.4km/h 1mph /  1.6km/h 76% 0in /  0.0mm 0 W/m2
02:50 52.9 °F /  11.6 °C 45.5 °F /  7.5 °C 29.9in /  1012.5hPa Calm     76% 0in /  0.0mm 0 W/m2
02:55 53.1 °F /  11.7 °C 45.7 °F /  7.6 °C 29.9in /  1012.5hPa Calm   1mph /  1.6km/h 76% 0in /  0.0mm 0 W/m2
03:00 53.1 °F /  11.7 °C 45.7 °F /  7.6 °C 29.9in /  1012.5hPa Calm   1mph /  1.6km/h 76% 0in /  0.0mm 0 W/m2
03:05 53.1 °F /  11.7 °C 46.4 °F /  8 °C 29.9in /  1012.2hPa WSW 0.9mph /  1.4km/h 1mph /  1.6km/h 78% 0in /  0.0mm 0 W/m2
03:10 52.7 °F /  11.5 °C 46.4 °F /  8 °C 29.9in /  1012.5hPa West 0.9mph /  1.4km/h 1mph /  1.6km/h 79% 0in /  0.0mm 0 W/m2
03:15 52.3 °F /  11.3 °C 46.8 °F /  8.2 °C 29.9in /  1012.2hPa SSE 2.9mph /  4.7km/h 3mph /  4.8km/h 81% 0in /  0.0mm 0 W/m2
03:20 52.2 °F /  11.2 °C 46.8 °F /  8.2 °C 29.9in /  1012.2hPa Calm     82% 0in /  0.0mm 0 W/m2
03:26 52.2 °F /  11.2 °C 47.1 °F /  8.4 °C 29.9in /  1012.2hPa West 2.9mph /  4.7km/h 3mph /  4.8km/h 83% 0in /  0.0mm 0 W/m2
03:31 51.8 °F /  11 °C 46.8 °F /  8.2 °C 29.9in /  1012.2hPa Calm   1mph /  1.6km/h 83% 0in /  0.0mm 0 W/m2
03:36 51.6 °F /  10.9 °C 46.9 °F /  8.3 °C 29.9in /  1012.2hPa Calm     84% 0in /  0.0mm 0 W/m2
03:41 51.4 °F /  10.8 °C 46.8 °F /  8.2 °C 29.9in /  1012.2hPa Calm     84% 0in /  0.0mm 0 W/m2
03:46 51.3 °F /  10.7 °C 46.6 °F /  8.1 °C 29.9in /  1012.2hPa Calm     84% 0in /  0.0mm 0 W/m2
03:51 50.9 °F /  10.5 °C 46.2 °F /  7.9 °C 29.9in /  1012.2hPa Calm   1mph /  1.6km/h 84% 0in /  0.0mm 0 W/m2
03:56 50.7 °F /  10.4 °C 46 °F /  7.8 °C 29.9in /  1012.2hPa Calm     84% 0in /  0.0mm 0 W/m2
04:01 50.5 °F /  10.3 °C 45.9 °F /  7.7 °C 29.9in /  1012.2hPa Calm   1mph /  1.6km/h 84% 0in /  0.0mm 0 W/m2
04:06 50.4 °F /  10.2 °C 45.7 °F /  7.6 °C 29.9in /  1012.2hPa Calm     84% 0in /  0.0mm 0 W/m2
04:11 50.4 °F /  10.2 °C 46 °F /  7.8 °C 29.9in /  1012.2hPa Calm     85% 0in /  0.0mm 0 W/m2
04:16 50.2 °F /  10.1 °C 45.9 °F /  7.7 °C 29.9in /  1012.2hPa Calm     85% 0in /  0.0mm 0 W/m2
04:21 50.2 °F /  10.1 °C 45.9 °F /  7.7 °C 29.9in /  1012.2hPa Calm     85% 0in /  0.0mm 0 W/m2
04:26 49.8 °F /  9.9 °C 45.5 °F /  7.5 °C 29.9in /  1012.2hPa Calm     85% 0in /  0.0mm 0 W/m2
04:31 49.8 °F /  9.9 °C 45.5 °F /  7.5 °C 29.9in /  1012.2hPa Calm     85% 0in /  0.0mm 0 W/m2
04:36 49.6 °F /  9.8 °C 45.3 °F /  7.4 °C 29.9in /  1012.2hPa Calm     85% 0in /  0.0mm 0 W/m2
04:41 49.6 °F /  9.8 °C 45.7 °F /  7.6 °C 29.9in /  1012.2hPa Calm     86% 0in /  0.0mm 0 W/m2
04:46 49.6 °F /  9.8 °C 45.3 °F /  7.4 °C 29.9in /  1012.2hPa Calm     85% 0in /  0.0mm 0 W/m2
04:51 49.5 °F /  9.7 °C 45.1 °F /  7.3 °C 29.9in /  1012.2hPa Calm     85% 0in /  0.0mm 0 W/m2
04:56 49.3 °F /  9.6 °C 45.3 °F /  7.4 °C 29.9in /  1012.2hPa Calm     86% 0in /  0.0mm 0 W/m2
05:01 49.3 °F /  9.6 °C 45.3 °F /  7.4 °C 29.9in /  1012.2hPa Calm     86% 0in /  0.0mm 0 W/m2
05:06 49.1 °F /  9.5 °C 45.1 °F /  7.3 °C 29.9in /  1011.9hPa Calm     86% 0in /  0.0mm 0 W/m2
05:11 48.9 °F /  9.4 °C 45.1 °F /  7.3 °C 29.9in /  1012.2hPa Calm     87% 0in /  0.0mm 0 W/m2
05:16 48.9 °F /  9.4 °C 45.1 °F /  7.3 °C 29.9in /  1012.2hPa Calm     87% 0in /  0.0mm 0 W/m2
05:21 48.7 °F /  9.3 °C 45 °F /  7.2 °C 29.9in /  1012.2hPa Calm     87% 0in /  0.0mm 0 W/m2
05:26 48.7 °F /  9.3 °C 45 °F /  7.2 °C 29.9in /  1012.2hPa Calm     87% 0in /  0.0mm 0 W/m2
05:31 48.6 °F /  9.2 °C 44.8 °F /  7.1 °C 29.9in /  1012.2hPa Calm     87% 0in /  0.0mm 0 W/m2
05:36 48.4 °F /  9.1 °C 44.8 °F /  7.1 °C 29.9in /  1012.2hPa Calm     87% 0in /  0.0mm 0 W/m2
05:41 48.4 °F /  9.1 °C 45 °F /  7.2 °C 29.9in /  1012.2hPa Calm     88% 0in /  0.0mm 0 W/m2
05:46 48.2 °F /  9 °C 44.8 °F /  7.1 °C 29.9in /  1012.2hPa Calm     88% 0in /  0.0mm 0 W/m2
05:51 48 °F /  8.9 °C 44.6 °F /  7 °C 29.9in /  1012.2hPa Calm     88% 0in /  0.0mm 0 W/m2
05:56 48 °F /  8.9 °C 44.6 °F /  7 °C 29.9in /  1012.2hPa Calm     88% 0in /  0.0mm 0 W/m2
06:01 47.8 °F /  8.8 °C 44.4 °F /  6.9 °C 29.9in /  1012.2hPa Calm     88% 0in /  0.0mm 0 W/m2
06:06 47.8 °F /  8.8 °C 44.4 °F /  6.9 °C 29.9in /  1012.2hPa Calm     88% 0in /  0.0mm 0 W/m2
06:11 47.7 °F /  8.7 °C 44.2 °F /  6.8 °C 29.9in /  1012.2hPa Calm     88% 0in /  0.0mm 0 W/m2
06:16 47.7 °F /  8.7 °C 44.2 °F /  6.8 °C 29.9in /  1012.2hPa Calm     88% 0in /  0.0mm 0 W/m2
06:22 47.7 °F /  8.7 °C 44.2 °F /  6.8 °C 29.9in /  1012.2hPa Calm     88% 0in /  0.0mm 0 W/m2
06:27 47.5 °F /  8.6 °C 44.1 °F /  6.7 °C 29.9in /  1012.2hPa Calm     88% 0in /  0.0mm 0 W/m2
06:32 47.5 °F /  8.6 °C 44.1 °F /  6.7 °C 29.9in /  1012.2hPa Calm     88% 0in /  0.0mm 0 W/m2
06:37 47.5 °F /  8.6 °C 44.1 °F /  6.7 °C 29.9in /  1012.2hPa Calm     88% 0in /  0.0mm 0 W/m2
06:42 47.5 °F /  8.6 °C 44.1 °F /  6.7 °C 29.9in /  1012.2hPa Calm     88% 0in /  0.0mm 0 W/m2
06:47 47.5 °F /  8.6 °C 44.1 °F /  6.7 °C 29.9in /  1012.2hPa Calm     88% 0in /  0.0mm 0 W/m2
06:52 47.3 °F /  8.5 °C 43.9 °F /  6.6 °C 29.9in /  1012.2hPa Calm     88% 0in /  0.0mm 0 W/m2
06:57 47.1 °F /  8.4 °C 43.7 °F /  6.5 °C 29.9in /  1012.2hPa Calm     88% 0in /  0.0mm 5 W/m2
07:02 47.1 °F /  8.4 °C 43.7 °F /  6.5 °C 29.9in /  1012.2hPa Calm     88% 0in /  0.0mm 7 W/m2
07:07 47.1 °F /  8.4 °C 43.7 °F /  6.5 °C 29.9in /  1012.2hPa Calm     88% 0in /  0.0mm 11 W/m2
07:12 47.1 °F /  8.4 °C 43.7 °F /  6.5 °C 29.9in /  1012.2hPa Calm     88% 0in /  0.0mm 12 W/m2
07:17 47.1 °F /  8.4 °C 43.7 °F /  6.5 °C 29.9in /  1012.5hPa Calm     88% 0in /  0.0mm 18 W/m2
07:22 47.1 °F /  8.4 °C 43.7 °F /  6.5 °C 29.9in /  1012.5hPa Calm     88% 0in /  0.0mm 23 W/m2
07:27 47.1 °F /  8.4 °C 43.7 °F /  6.5 °C 29.9in /  1012.5hPa Calm     88% 0in /  0.0mm 28 W/m2
07:33 47.1 °F /  8.4 °C 43.7 °F /  6.5 °C 29.9in /  1012.5hPa Calm     88% 0in /  0.0mm 37 W/m2
07:38 47.3 °F /  8.5 °C 43.9 °F /  6.6 °C 29.9in /  1012.5hPa Calm     88% 0in /  0.0mm 40 W/m2
07:43 47.7 °F /  8.7 °C 44.2 °F /  6.8 °C 29.9in /  1012.9hPa Calm     88% 0in /  0.0mm 44 W/m2
07:48 47.8 °F /  8.8 °C 44.4 °F /  6.9 °C 29.9in /  1012.9hPa Calm     88% 0in /  0.0mm 47 W/m2
07:53 48 °F /  8.9 °C 44.6 °F /  7 °C 29.9in /  1013.2hPa Calm   1mph /  1.6km/h 88% 0in /  0.0mm 49 W/m2
07:58 48.7 °F /  9.3 °C 45 °F /  7.2 °C 29.9in /  1013.5hPa SSW 0.9mph /  1.4km/h 3mph /  4.8km/h 87% 0in /  0.0mm 86 W/m2
08:03 49.1 °F /  9.5 °C 45.1 °F /  7.3 °C 29.9in /  1013.5hPa Calm   1mph /  1.6km/h 86% 0in /  0.0mm 74 W/m2
08:08 49.5 °F /  9.7 °C 45.5 °F /  7.5 °C 29.9in /  1013.5hPa Calm   3mph /  4.8km/h 86% 0in /  0.0mm 91 W/m2
08:13 50 °F /  10 °C 45.3 °F /  7.4 °C 29.9in /  1013.5hPa WNW 0.9mph /  1.4km/h 3mph /  4.8km/h 84% 0in /  0.0mm 63 W/m2
08:18 50.5 °F /  10.3 °C 45.5 °F /  7.5 °C 29.9in /  1013.5hPa WNW 2mph /  3.2km/h 2mph /  3.2km/h 83% 0in /  0.0mm 65 W/m2
08:23 50.7 °F /  10.4 °C 45.5 °F /  7.5 °C 29.9in /  1013.5hPa Calm   3mph /  4.8km/h 82% 0in /  0.0mm 77 W/m2
08:28 51.1 °F /  10.6 °C 46 °F /  7.8 °C 29.9in /  1013.5hPa Calm   1mph /  1.6km/h 83% 0in /  0.0mm 76 W/m2
08:33 51.4 °F /  10.8 °C 46.4 °F /  8 °C 29.9in /  1013.9hPa SSE 2mph /  3.2km/h 2mph /  3.2km/h 83% 0in /  0.0mm 81 W/m2
08:38 51.6 °F /  10.9 °C 46.2 °F /  7.9 °C 29.9in /  1013.5hPa ESE 0.9mph /  1.4km/h 2mph /  3.2km/h 82% 0in /  0.0mm 93 W/m2
08:43 51.8 °F /  11 °C 46.4 °F /  8 °C 29.9in /  1013.5hPa ESE 0.9mph /  1.4km/h 1mph /  1.6km/h 82% 0in /  0.0mm 107 W/m2
08:48 52.3 °F /  11.3 °C 46.8 °F /  8.2 °C 29.9in /  1013.9hPa SSW 2mph /  3.2km/h 2mph /  3.2km/h 81% 0in /  0.0mm 95 W/m2
08:53 52.3 °F /  11.3 °C 46.8 °F /  8.2 °C 29.9in /  1013.9hPa ESE 2mph /  3.2km/h 2mph /  3.2km/h 81% 0in /  0.0mm 111 W/m2
08:58 52.5 °F /  11.4 °C 46.9 °F /  8.3 °C 29.9in /  1013.9hPa Calm   1mph /  1.6km/h 81% 0in /  0.0mm 118 W/m2
09:03 52.5 °F /  11.4 °C 46.9 °F /  8.3 °C 29.9in /  1013.9hPa Calm     81% 0in /  0.0mm 132 W/m2
09:08 52.9 °F /  11.6 °C 47.3 °F /  8.5 °C 29.9in /  1013.9hPa ESE 0.9mph /  1.4km/h 2mph /  3.2km/h 81% 0in /  0.0mm 163 W/m2
09:13 53.1 °F /  11.7 °C 47.1 °F /  8.4 °C 29.9in /  1013.9hPa Calm   1mph /  1.6km/h 80% 0in /  0.0mm 258 W/m2
09:18 53.2 °F /  11.8 °C 46.9 °F /  8.3 °C 29.9in /  1013.9hPa Calm     79% 0in /  0.0mm 107 W/m2
09:23 53.4 °F /  11.9 °C 46.8 °F /  8.2 °C 29.9in /  1013.9hPa Calm   1mph /  1.6km/h 78% 0in /  0.0mm 113 W/m2
09:28 53.8 °F /  12.1 °C 47.1 °F /  8.4 °C 29.9in /  1013.9hPa ESE 0.9mph /  1.4km/h 1mph /  1.6km/h 78% 0in /  0.0mm 127 W/m2
09:33 54.1 °F /  12.3 °C 47.1 °F /  8.4 °C 29.9in /  1013.9hPa ESE 0.9mph /  1.4km/h 1mph /  1.6km/h 77% 0in /  0.0mm 341 W/m2
09:38 54.7 °F /  12.6 °C 47.3 °F /  8.5 °C 29.9in /  1013.9hPa Calm   1mph /  1.6km/h 76% 0in /  0.0mm 383 W/m2
09:43 55.4 °F /  13 °C 47.7 °F /  8.7 °C 29.9in /  1013.9hPa Calm   2mph /  3.2km/h 75% 0in /  0.0mm 125 W/m2
09:49 55.9 °F /  13.3 °C 47.8 °F /  8.8 °C 30in /  1014.2hPa Calm   1mph /  1.6km/h 74% 0in /  0.0mm 327 W/m2
09:54 56.5 °F /  13.6 °C 48.4 °F /  9.1 °C 30in /  1014.2hPa Calm   2mph /  3.2km/h 74% 0in /  0.0mm 401 W/m2
09:59 56.8 °F /  13.8 °C 47.1 °F /  8.4 °C 30in /  1014.2hPa North 2mph /  3.2km/h 2mph /  3.2km/h 70% 0in /  0.0mm 411 W/m2
10:04 57.7 °F /  14.3 °C 47.7 °F /  8.7 °C 30in /  1014.2hPa WNW 2.9mph /  4.7km/h 4mph /  6.4km/h 69% 0in /  0.0mm 446 W/m2
10:09 57.7 °F /  14.3 °C 48 °F /  8.9 °C 30in /  1014.2hPa Calm   1mph /  1.6km/h 70% 0in /  0.0mm 471 W/m2
10:14 58.3 °F /  14.6 °C 48.2 °F /  9 °C 30in /  1014.2hPa NNW 0.9mph /  1.4km/h 2mph /  3.2km/h 69% 0in /  0.0mm 172 W/m2
10:19 58.6 °F /  14.8 °C 48.6 °F /  9.2 °C 30in /  1014.2hPa West 2.9mph /  4.7km/h 3mph /  4.8km/h 69% 0in /  0.0mm 499 W/m2
10:24 59 °F /  15 °C 48.4 °F /  9.1 °C 30in /  1014.2hPa NW 0.9mph /  1.4km/h 1mph /  1.6km/h 68% 0in /  0.0mm 515 W/m2
10:29 59.5 °F /  15.3 °C 48.2 °F /  9 °C 30in /  1014.6hPa WNW 4mph /  6.4km/h 4mph /  6.4km/h 66% 0in /  0.0mm 265 W/m2
10:34 59.7 °F /  15.4 °C 47.5 °F /  8.6 °C 30in /  1014.6hPa Calm   3mph /  4.8km/h 64% 0in /  0.0mm 265 W/m2
10:39 60.1 °F /  15.6 °C 47.8 °F /  8.8 °C 30in /  1014.6hPa Calm   4mph /  6.4km/h 64% 0in /  0.0mm 621 W/m2
10:44 60.4 °F /  15.8 °C 48.6 °F /  9.2 °C 30in /  1014.6hPa West 0.9mph /  1.4km/h 2mph /  3.2km/h 65% 0in /  0.0mm 617 W/m2
10:49 61.7 °F /  16.5 °C 48.9 °F /  9.4 °C 30in /  1014.6hPa East 0.9mph /  1.4km/h 1mph /  1.6km/h 63% 0in /  0.0mm 520 W/m2
10:54 62.4 °F /  16.9 °C 48.4 °F /  9.1 °C 30in /  1014.6hPa NW 2mph /  3.2km/h 3mph /  4.8km/h 60% 0in /  0.0mm 633 W/m2
10:59 63 °F /  17.2 °C 48 °F /  8.9 °C 30in /  1014.6hPa NNW 0.9mph /  1.4km/h 3mph /  4.8km/h 58% 0in /  0.0mm 691 W/m2
11:04 63.3 °F /  17.4 °C 48.4 °F /  9.1 °C 30in /  1014.9hPa ESE 6.9mph /  11.1km/h 7mph /  11.3km/h 58% 0in /  0.0mm 373 W/m2
11:09 63.1 °F /  17.3 °C 47.1 °F /  8.4 °C 30in /  1014.9hPa WNW 0.9mph /  1.4km/h 6mph /  9.7km/h 56% 0in /  0.0mm 186 W/m2
11:14 62.6 °F /  17 °C 47.7 °F /  8.7 °C 30in /  1014.9hPa ENE 4mph /  6.4km/h 5mph /  8km/h 58% 0in /  0.0mm 146 W/m2
11:19 62.1 °F /  16.7 °C 48 °F /  8.9 °C 30in /  1014.9hPa ESE 0.9mph /  1.4km/h 5mph /  8km/h 60% 0in /  0.0mm 137 W/m2
11:24 61.5 °F /  16.4 °C 49.3 °F /  9.6 °C 30in /  1014.9hPa NE 2mph /  3.2km/h 5mph /  8km/h 64% 0in /  0.0mm 153 W/m2
11:29 61 °F /  16.1 °C 49.5 °F /  9.7 °C 30in /  1014.9hPa NNW 0.9mph /  1.4km/h 3mph /  4.8km/h 66% 0in /  0.0mm 214 W/m2
11:34 60.6 °F /  15.9 °C 49.6 °F /  9.8 °C 30in /  1014.9hPa West 2mph /  3.2km/h 2mph /  3.2km/h 67% 0in /  0.0mm 288 W/m2
11:39 60.6 °F /  15.9 °C 49.3 °F /  9.6 °C 30in /  1015.2hPa ENE 2mph /  3.2km/h 9mph /  14.5km/h 66% 0in /  0.0mm 388 W/m2
11:44 60.8 °F /  16 °C 48.9 °F /  9.4 °C 30in /  1015.2hPa NE 6mph /  9.7km/h 6mph /  9.7km/h 65% 0in /  0.0mm 403 W/m2
11:49 60.8 °F /  16 °C 48.9 °F /  9.4 °C 30in /  1015.2hPa ESE 2mph /  3.2km/h 4mph /  6.4km/h 65% 0in /  0.0mm 267 W/m2
11:54 60.8 °F /  16 °C 48.9 °F /  9.4 °C 30in /  1015.2hPa ESE 0.9mph /  1.4km/h 4mph /  6.4km/h 65% 0in /  0.0mm 357 W/m2
11:59 61.3 °F /  16.3 °C 49.5 °F /  9.7 °C 30in /  1015.2hPa NW 2.9mph /  4.7km/h 9mph /  14.5km/h 65% 0in /  0.0mm 735 W/m2
12:04 61.5 °F /  16.4 °C 48.7 °F /  9.3 °C 30in /  1015.2hPa NE 2mph /  3.2km/h 8mph /  12.9km/h 63% 0in /  0.0mm 292 W/m2
12:09 61.3 °F /  16.3 °C 49.1 °F /  9.5 °C 30in /  1015.2hPa North 2.9mph /  4.7km/h 9mph /  14.5km/h 64% 0in /  0.0mm 279 W/m2
12:14 61.3 °F /  16.3 °C 49.1 °F /  9.5 °C 30in /  1015.2hPa East 2.9mph /  4.7km/h 6mph /  9.7km/h 64% 0in /  0.0mm 272 W/m2
12:19 61.5 °F /  16.4 °C 49.3 °F /  9.6 °C 30in /  1015.2hPa NE 4mph /  6.4km/h 6mph /  9.7km/h 64% 0in /  0.0mm 283 W/m2
12:24 61.5 °F /  16.4 °C 49.6 °F /  9.8 °C 30in /  1015.2hPa ESE 2mph /  3.2km/h 3mph /  4.8km/h 65% 0in /  0.0mm 323 W/m2
12:29 61.5 °F /  16.4 °C 49.6 °F /  9.8 °C 30in /  1015.2hPa ESE 2mph /  3.2km/h 4mph /  6.4km/h 65% 0in /  0.0mm 404 W/m2
12:34 61.7 °F /  16.5 °C 50.2 °F /  10.1 °C 30in /  1015.2hPa ESE 0.9mph /  1.4km/h 4mph /  6.4km/h 66% 0in /  0.0mm 352 W/m2
12:39 61.5 °F /  16.4 °C 49.6 °F /  9.8 °C 30in /  1015.6hPa ENE 2mph /  3.2km/h 3mph /  4.8km/h 65% 0in /  0.0mm 360 W/m2
12:44 61.7 °F /  16.5 °C 49.8 °F /  9.9 °C 30in /  1015.2hPa ENE 4mph /  6.4km/h 4mph /  6.4km/h 65% 0in /  0.0mm 338 W/m2
12:49 61.9 °F /  16.6 °C 50 °F /  10 °C 30in /  1015.6hPa NNW 0.9mph /  1.4km/h 5mph /  8km/h 65% 0in /  0.0mm 311 W/m2
12:54 62.1 °F /  16.7 °C 49.8 °F /  9.9 °C 30in /  1015.6hPa West 4mph /  6.4km/h 9mph /  14.5km/h 64% 0in /  0.0mm 183 W/m2
12:59 61.5 °F /  16.4 °C 48.7 °F /  9.3 °C 30in /  1015.6hPa Calm   8mph /  12.9km/h 63% 0in /  0.0mm 197 W/m2
13:04 61.3 °F /  16.3 °C 49.5 °F /  9.7 °C 30in /  1015.6hPa North 2mph /  3.2km/h 9mph /  14.5km/h 65% 0in /  0.0mm 257 W/m2
13:09 61.3 °F /  16.3 °C 50.4 °F /  10.2 °C 30in /  1015.6hPa NE 2mph /  3.2km/h 7mph /  11.3km/h 67% 0in /  0.0mm 334 W/m2
13:14 61.5 °F /  16.4 °C 50.5 °F /  10.3 °C 30in /  1015.6hPa ENE 0.9mph /  1.4km/h 6mph /  9.7km/h 67% 0in /  0.0mm 236 W/m2
13:19 61.3 °F /  16.3 °C 49.8 °F /  9.9 °C 30in /  1015.6hPa NW 4mph /  6.4km/h 7mph /  11.3km/h 66% 0in /  0.0mm 221 W/m2
13:24 61 °F /  16.1 °C 50 °F /  10 °C 30in /  1015.6hPa ESE 4mph /  6.4km/h 10mph /  16.1km/h 67% 0in /  0.0mm 287 W/m2
13:29 60.6 °F /  15.9 °C 50 °F /  10 °C 30in /  1015.6hPa WSW 4.9mph /  7.9km/h 9mph /  14.5km/h 68% 0in /  0.0mm 570 W/m2
13:34 61.2 °F /  16.2 °C 49.6 °F /  9.8 °C 30in /  1015.9hPa SE 2mph /  3.2km/h 9mph /  14.5km/h 66% 0in /  0.0mm 784 W/m2
13:39 61 °F /  16.1 °C 49.5 °F /  9.7 °C 30in /  1015.9hPa SE 2mph /  3.2km/h 7mph /  11.3km/h 66% 0in /  0.0mm 248 W/m2
13:44 60.6 °F /  15.9 °C 49.6 °F /  9.8 °C 30in /  1015.9hPa North 4.9mph /  7.9km/h 13mph /  20.9km/h 67% 0in /  0.0mm 385 W/m2
13:49 60.6 °F /  15.9 °C 49.6 °F /  9.8 °C 30in /  1015.9hPa ESE 4mph /  6.4km/h 10mph /  16.1km/h 67% 0in /  0.0mm 327 W/m2
13:54 60.3 °F /  15.7 °C 48.9 °F /  9.4 °C 30in /  1015.6hPa SE 4mph /  6.4km/h 14mph /  22.5km/h 66% 0in /  0.0mm 253 W/m2
13:59 60.1 °F /  15.6 °C 48.2 °F /  9 °C 30in /  1015.9hPa WNW 6.9mph /  11.1km/h 13mph /  20.9km/h 65% 0in /  0.0mm 185 W/m2
14:04 59.4 °F /  15.2 °C 48.4 °F /  9.1 °C 30in /  1015.9hPa North 0.9mph /  1.4km/h 14mph /  22.5km/h 67% 0in /  0.0mm 185 W/m2
14:09 59.2 °F /  15.1 °C 48.6 °F /  9.2 °C 30in /  1015.6hPa ENE 0.9mph /  1.4km/h 7mph /  11.3km/h 68% 0in /  0.0mm 295 W/m2
14:14 59.5 °F /  15.3 °C 48.6 °F /  9.2 °C 30in /  1015.6hPa ESE 2mph /  3.2km/h 4mph /  6.4km/h 67% 0in /  0.0mm 612 W/m2
14:19 60.4 °F /  15.8 °C 48.2 °F /  9 °C 30in /  1015.9hPa ESE 6.9mph /  11.1km/h 12mph /  19.3km/h 64% 0in /  0.0mm 394 W/m2
14:24 60.3 °F /  15.7 °C 47.7 °F /  8.7 °C 30in /  1015.9hPa North 2mph /  3.2km/h 5mph /  8km/h 63% 0in /  0.0mm 258 W/m2
14:29 60.1 °F /  15.6 °C 46.9 °F /  8.3 °C 30in /  1015.9hPa ESE 4.9mph /  7.9km/h 9mph /  14.5km/h 62% 0in /  0.0mm 271 W/m2
14:34 59.7 °F /  15.4 °C 45.9 °F /  7.7 °C 30in /  1016.3hPa SE 4.9mph /  7.9km/h 7mph /  11.3km/h 60% 0in /  0.0mm 244 W/m2
14:39 59.4 °F /  15.2 °C 46.4 °F /  8 °C 30in /  1016.3hPa West 2mph /  3.2km/h 9mph /  14.5km/h 62% 0in /  0.0mm 230 W/m2
14:44 59.2 °F /  15.1 °C 46.2 °F /  7.9 °C 30in /  1016.3hPa NNW 2.9mph /  4.7km/h 11mph /  17.7km/h 62% 0in /  0.0mm 236 W/m2
14:50 59.2 °F /  15.1 °C 46.2 °F /  7.9 °C 30in /  1016.3hPa East 4mph /  6.4km/h 11mph /  17.7km/h 62% 0in /  0.0mm 311 W/m2
14:55 59.4 °F /  15.2 °C 46.4 °F /  8 °C 30in /  1016.3hPa NNE 2.9mph /  4.7km/h 11mph /  17.7km/h 62% 0in /  0.0mm 234 W/m2
15:00 59.5 °F /  15.3 °C 45.1 °F /  7.3 °C 30in /  1016.3hPa East 10.1mph /  16.3km/h 15mph /  24.1km/h 59% 0in /  0.0mm 213 W/m2
15:05 59.2 °F /  15.1 °C 45.7 °F /  7.6 °C 30in /  1016.3hPa NNE 4mph /  6.4km/h 8mph /  12.9km/h 61% 0in /  0.0mm 234 W/m2
15:10 59.2 °F /  15.1 °C 45.3 °F /  7.4 °C 30in /  1016.3hPa NNW 2mph /  3.2km/h 15mph /  24.1km/h 60% 0in /  0.0mm 278 W/m2
15:15 59.2 °F /  15.1 °C 45.3 °F /  7.4 °C 30in /  1016.3hPa ENE 4mph /  6.4km/h 9mph /  14.5km/h 60% 0in /  0.0mm 396 W/m2
15:20 59.4 °F /  15.2 °C 45.5 °F /  7.5 °C 30in /  1016.6hPa WNW 0.9mph /  1.4km/h 10mph /  16.1km/h 60% 0in /  0.0mm 364 W/m2
15:25 59.7 °F /  15.4 °C 46.2 °F /  7.9 °C 30in /  1016.6hPa WSW 10.1mph /  16.3km/h 11mph /  17.7km/h 61% 0in /  0.0mm 311 W/m2
15:30 59.9 °F /  15.5 °C 45.5 °F /  7.5 °C 30in /  1016.6hPa West 2.9mph /  4.7km/h 8mph /  12.9km/h 59% 0in /  0.0mm 628 W/m2
15:35 59.5 °F /  15.3 °C 44.8 °F /  7.1 °C 30in /  1016.9hPa North 2.9mph /  4.7km/h 13mph /  20.9km/h 58% 0in /  0.0mm 561 W/m2
15:40 59.4 °F /  15.2 °C 45 °F /  7.2 °C 30in /  1016.9hPa NE 6mph /  9.7km/h 14mph /  22.5km/h 59% 0in /  0.0mm 582 W/m2
15:45 59 °F /  15 °C 44.8 °F /  7.1 °C 30in /  1016.6hPa SSE 2.9mph /  4.7km/h 14mph /  22.5km/h 59% 0in /  0.0mm 559 W/m2
15:50 58.5 °F /  14.7 °C 45.1 °F /  7.3 °C 30in /  1016.9hPa SE 4mph /  6.4km/h 7mph /  11.3km/h 61% 0in /  0.0mm 575 W/m2
15:55 58.6 °F /  14.8 °C 44.8 °F /  7.1 °C 30in /  1016.9hPa East 4mph /  6.4km/h 11mph /  17.7km/h 60% 0in /  0.0mm 497 W/m2
16:00 57.9 °F /  14.4 °C 44.1 °F /  6.7 °C 30in /  1016.9hPa North 4.9mph /  7.9km/h 13mph /  20.9km/h 60% 0in /  0.0mm 253 W/m2
16:05 57.6 °F /  14.2 °C 44.2 °F /  6.8 °C 30in /  1016.9hPa SSE 4mph /  6.4km/h 13mph /  20.9km/h 61% 0in /  0.0mm 594 W/m2
16:10 57.4 °F /  14.1 °C 44.4 °F /  6.9 °C 30in /  1016.9hPa East 8.1mph /  13km/h 9mph /  14.5km/h 62% 0in /  0.0mm 561 W/m2
16:15 56.8 °F /  13.8 °C 43.9 °F /  6.6 °C 30in /  1017.3hPa WNW 8.1mph /  13km/h 11mph /  17.7km/h 62% 0in /  0.0mm 524 W/m2
16:20 56.5 °F /  13.6 °C 44.1 °F /  6.7 °C 30in /  1016.9hPa NW 6mph /  9.7km/h 12mph /  19.3km/h 63% 0in /  0.0mm 497 W/m2
16:25 55.9 °F /  13.3 °C 43.5 °F /  6.4 °C 30in /  1017.3hPa South 6mph /  9.7km/h 12mph /  19.3km/h 63% 0in /  0.0mm 485 W/m2
16:31 55.2 °F /  12.9 °C 43.3 °F /  6.3 °C 30in /  1017.3hPa East 4mph /  6.4km/h 12mph /  19.3km/h 64% 0in /  0.0mm 533 W/m2
16:36 54.9 °F /  12.7 °C 43 °F /  6.1 °C 30in /  1017.3hPa NNW 8.9mph /  14.3km/h 14mph /  22.5km/h 64% 0in /  0.0mm 475 W/m2
16:41 54.9 °F /  12.7 °C 43 °F /  6.1 °C 30in /  1016.9hPa SE 2.9mph /  4.7km/h 8mph /  12.9km/h 64% 0in /  0.0mm 446 W/m2
16:46 55 °F /  12.8 °C 42.6 °F /  5.9 °C 30in /  1016.9hPa NW 2mph /  3.2km/h 14mph /  22.5km/h 63% 0in /  0.0mm 466 W/m2
16:51 54.7 °F /  12.6 °C 42.3 °F /  5.7 °C 30in /  1016.9hPa West 8.1mph /  13km/h 10mph /  16.1km/h 63% 0in /  0.0mm 448 W/m2
16:56 54.7 °F /  12.6 °C 42.3 °F /  5.7 °C 30in /  1016.9hPa West 4mph /  6.4km/h 11mph /  17.7km/h 63% 0in /  0.0mm 438 W/m2
17:01 54.7 °F /  12.6 °C 41.9 °F /  5.5 °C 30in /  1016.9hPa NNW 8.1mph /  13km/h 15mph /  24.1km/h 62% 0in /  0.0mm 424 W/m2
17:06 54.3 °F /  12.4 °C 41.5 °F /  5.3 °C 30in /  1016.9hPa ESE 2mph /  3.2km/h 8mph /  12.9km/h 62% 0in /  0.0mm 410 W/m2
17:11 54.7 °F /  12.6 °C 41 °F /  5 °C 30in /  1017.3hPa ESE 6mph /  9.7km/h 13mph /  20.9km/h 60% 0in /  0.0mm 424 W/m2
17:16 54.5 °F /  12.5 °C 40.8 °F /  4.9 °C 30in /  1017.3hPa ESE 4mph /  6.4km/h 8mph /  12.9km/h 60% 0in /  0.0mm 450 W/m2
17:21 54.3 °F /  12.4 °C 40.8 °F /  4.9 °C 30in /  1017.3hPa NE 13mph /  20.9km/h 13mph /  20.9km/h 60% 0in /  0.0mm 348 W/m2
17:26 54 °F /  12.2 °C 40.5 °F /  4.7 °C 30in /  1017.3hPa NNW 2.9mph /  4.7km/h 8mph /  12.9km/h 60% 0in /  0.0mm 285 W/m2
17:31 53.2 °F /  11.8 °C 39.2 °F /  4 °C 30in /  1017.3hPa NNW 8.9mph /  14.3km/h 9mph /  14.5km/h 59% 0in /  0.0mm 225 W/m2
17:36 52.7 °F /  11.5 °C 39.2 °F /  4 °C 30in /  1017.3hPa ENE 2mph /  3.2km/h 12mph /  19.3km/h 60% 0in /  0.0mm 190 W/m2
17:41 52.2 °F /  11.2 °C 39.2 °F /  4 °C 30in /  1017.3hPa East 10.1mph /  16.3km/h 14mph /  22.5km/h 61% 0in /  0.0mm 197 W/m2
17:46 52 °F /  11.1 °C 39 °F /  3.9 °C 30.1in /  1017.6hPa ENE 4.9mph /  7.9km/h 14mph /  22.5km/h 61% 0in /  0.0mm 178 W/m2
17:51 51.6 °F /  10.9 °C 38.7 °F /  3.7 °C 30in /  1017.3hPa SW 2.9mph /  4.7km/h 17mph /  27.4km/h 61% 0in /  0.0mm 367 W/m2
17:56 52.2 °F /  11.2 °C 39.6 °F /  4.2 °C 30in /  1017.3hPa SSE 2mph /  3.2km/h 5mph /  8km/h 62% 0in /  0.0mm 308 W/m2
18:01 52.7 °F /  11.5 °C 39.2 °F /  4 °C 30in /  1017.3hPa NW 0.9mph /  1.4km/h 10mph /  16.1km/h 60% 0in /  0.0mm 371 W/m2
18:06 53.2 °F /  11.8 °C 39.2 °F /  4 °C 30in /  1017.3hPa South 2.9mph /  4.7km/h 12mph /  19.3km/h 59% 0in /  0.0mm 227 W/m2
18:11 53.1 °F /  11.7 °C 38.7 °F /  3.7 °C 30in /  1017.3hPa SE 4mph /  6.4km/h 8mph /  12.9km/h 58% 0in /  0.0mm 153 W/m2
18:16 53.1 °F /  11.7 °C 38.3 °F /  3.5 °C 30.1in /  1017.6hPa WNW 0.9mph /  1.4km/h 8mph /  12.9km/h 57% 0in /  0.0mm 264 W/m2
18:21 53.2 °F /  11.8 °C 37 °F /  2.8 °C 30.1in /  1017.6hPa North 4mph /  6.4km/h 8mph /  12.9km/h 54% 0in /  0.0mm 237 W/m2
18:26 53.1 °F /  11.7 °C 36.9 °F /  2.7 °C 30.1in /  1017.6hPa North 4mph /  6.4km/h 11mph /  17.7km/h 54% 0in /  0.0mm 118 W/m2
18:31 52.7 °F /  11.5 °C 36.5 °F /  2.5 °C 30.1in /  1017.6hPa ESE 4mph /  6.4km/h 14mph /  22.5km/h 54% 0in /  0.0mm 272 W/m2
18:36 52.7 °F /  11.5 °C 36.5 °F /  2.5 °C 30.1in /  1017.6hPa West 4mph /  6.4km/h 11mph /  17.7km/h 54% 0in /  0.0mm 221 W/m2
18:41 52.9 °F /  11.6 °C 36.1 °F /  2.3 °C 30.1in /  1017.6hPa NW 2.9mph /  4.7km/h 14mph /  22.5km/h 53% 0in /  0.0mm 197 W/m2
18:46 52.9 °F /  11.6 °C 35.2 °F /  1.8 °C 30.1in /  1017.6hPa NNE 4mph /  6.4km/h 8mph /  12.9km/h 51% 0in /  0.0mm 179 W/m2
18:51 52.7 °F /  11.5 °C 35.6 °F /  2 °C 30.1in /  1017.6hPa WNW 4.9mph /  7.9km/h 12mph /  19.3km/h 52% 0in /  0.0mm 165 W/m2
18:56 52.3 °F /  11.3 °C 34.7 °F /  1.5 °C 30.1in /  1017.6hPa NNE 8.9mph /  14.3km/h 9mph /  14.5km/h 51% 0in /  0.0mm 158 W/m2
19:01 52.5 °F /  11.4 °C 34.9 °F /  1.6 °C 30.1in /  1017.6hPa East 2.9mph /  4.7km/h 6mph /  9.7km/h 51% 0in /  0.0mm 144 W/m2
19:06 52.5 °F /  11.4 °C 34.3 °F /  1.3 °C 30.1in /  1017.6hPa NE 6.9mph /  11.1km/h 11mph /  17.7km/h 50% 0in /  0.0mm 128 W/m2
19:11 52.3 °F /  11.3 °C 33.8 °F /  1 °C 30.1in /  1017.6hPa NNW 4mph /  6.4km/h 4mph /  6.4km/h 49% 0in /  0.0mm 116 W/m2
19:16 52.3 °F /  11.3 °C 33.8 °F /  1 °C 30.1in /  1017.6hPa West 2.9mph /  4.7km/h 11mph /  17.7km/h 49% 0in /  0.0mm 102 W/m2
19:21 52.2 °F /  11.2 °C 33.1 °F /  0.6 °C 30.1in /  1017.6hPa East 4mph /  6.4km/h 7mph /  11.3km/h 48% 0in /  0.0mm 91 W/m2
19:26 52 °F /  11.1 °C 33.4 °F /  0.8 °C 30.1in /  1018.0hPa NNW 2.9mph /  4.7km/h 10mph /  16.1km/h 49% 0in /  0.0mm 81 W/m2
19:31 51.8 °F /  11 °C 33.8 °F /  1 °C 30.1in /  1018.0hPa SSE 0.9mph /  1.4km/h 7mph /  11.3km/h 50% 0in /  0.0mm 67 W/m2
19:36 51.8 °F /  11 °C 33.3 °F /  0.7 °C 30.1in /  1018.0hPa NW 2.9mph /  4.7km/h 6mph /  9.7km/h 49% 0in /  0.0mm 56 W/m2
19:41 51.6 °F /  10.9 °C 33.6 °F /  0.9 °C 30.1in /  1018.3hPa NNW 2mph /  3.2km/h 7mph /  11.3km/h 50% 0in /  0.0mm 47 W/m2
19:46 51.4 °F /  10.8 °C 33.4 °F /  0.8 °C 30.1in /  1018.3hPa East 2.9mph /  4.7km/h 8mph /  12.9km/h 50% 0in /  0.0mm 39 W/m2
19:51 51.3 °F /  10.7 °C 33.3 °F /  0.7 °C 30.1in /  1018.3hPa NE 4mph /  6.4km/h 6mph /  9.7km/h 50% 0in /  0.0mm 25 W/m2
19:56 50.9 °F /  10.5 °C 33.4 °F /  0.8 °C 30.1in /  1018.6hPa ENE 2.9mph /  4.7km/h 4mph /  6.4km/h 51% 0in /  0.0mm 21 W/m2
20:01 50.5 °F /  10.3 °C 33.1 °F /  0.6 °C 30.1in /  1018.6hPa NNW 2mph /  3.2km/h 5mph /  8km/h 51% 0in /  0.0mm 18 W/m2
20:06 50.4 °F /  10.2 °C 32.9 °F /  0.5 °C 30.1in /  1018.6hPa Calm   4mph /  6.4km/h 51% 0in /  0.0mm 16 W/m2
20:11 50.2 °F /  10.1 °C 32.7 °F /  0.4 °C 30.1in /  1018.6hPa NNW 0.9mph /  1.4km/h 3mph /  4.8km/h 51% 0in /  0.0mm 12 W/m2
20:16 49.8 °F /  9.9 °C 32.4 °F /  0.2 °C 30.1in /  1019.0hPa NNE 2.9mph /  4.7km/h 8mph /  12.9km/h 51% 0in /  0.0mm 9 W/m2
20:21 49.6 °F /  9.8 °C 32.7 °F /  0.4 °C 30.1in /  1019.0hPa WSW 2.9mph /  4.7km/h 3mph /  4.8km/h 52% 0in /  0.0mm 7 W/m2
20:26 49.5 °F /  9.7 °C 32 °F /  0 °C 30.1in /  1019.0hPa NNE 2mph /  3.2km/h 10mph /  16.1km/h 51% 0in /  0.0mm 5 W/m2
20:31 49.3 °F /  9.6 °C 31.5 °F /  -0.3 °C 30.1in /  1019.0hPa NNE 2.9mph /  4.7km/h 3mph /  4.8km/h 50% 0in /  0.0mm 0 W/m2
20:36 49.1 °F /  9.5 °C 31.3 °F /  -0.4 °C 30.1in /  1019.0hPa ENE 2mph /  3.2km/h 10mph /  16.1km/h 50% 0in /  0.0mm 0 W/m2
20:41 48.9 °F /  9.4 °C 31.6 °F /  -0.2 °C 30.1in /  1019.3hPa WNW 0.9mph /  1.4km/h 3mph /  4.8km/h 51% 0in /  0.0mm 0 W/m2
20:46 48.7 °F /  9.3 °C 31.5 °F /  -0.3 °C 30.1in /  1019.3hPa SW 2.9mph /  4.7km/h 10mph /  16.1km/h 51% 0in /  0.0mm 0 W/m2
20:51 48.6 °F /  9.2 °C 31.8 °F /  -0.1 °C 30.1in /  1019.3hPa NNW 6mph /  9.7km/h 6mph /  9.7km/h 52% 0in /  0.0mm 0 W/m2
20:56 48.4 °F /  9.1 °C 31.6 °F /  -0.2 °C 30.1in /  1019.3hPa WNW 0.9mph /  1.4km/h 5mph /  8km/h 52% 0in /  0.0mm 0 W/m2
21:01 48 °F /  8.9 °C 31.3 °F /  -0.4 °C 30.1in /  1019.6hPa NE 2mph /  3.2km/h 4mph /  6.4km/h 52% 0in /  0.0mm 0 W/m2
21:07 47.8 °F /  8.8 °C 31.5 °F /  -0.3 °C 30.1in /  1019.6hPa East 4mph /  6.4km/h 5mph /  8km/h 53% 0in /  0.0mm 0 W/m2
21:12 47.7 °F /  8.7 °C 31.3 °F /  -0.4 °C 30.1in /  1019.6hPa SE 0.9mph /  1.4km/h 4mph /  6.4km/h 53% 0in /  0.0mm 0 W/m2
21:17 47.5 °F /  8.6 °C 31.3 °F /  -0.4 °C 30.1in /  1019.6hPa North 8.1mph /  13km/h 8mph /  12.9km/h 53% 0in /  0.0mm 0 W/m2
21:22 47.1 °F /  8.4 °C 30.9 °F /  -0.6 °C 30.1in /  1020.0hPa NNE 2mph /  3.2km/h 3mph /  4.8km/h 53% 0in /  0.0mm 0 W/m2
21:27 46.9 °F /  8.3 °C 30.7 °F /  -0.7 °C 30.1in /  1020.0hPa NW 2mph /  3.2km/h 10mph /  16.1km/h 53% 0in /  0.0mm 0 W/m2
21:32 46.8 °F /  8.2 °C 30.6 °F /  -0.8 °C 30.1in /  1020.0hPa NW 2mph /  3.2km/h 2mph /  3.2km/h 53% 0in /  0.0mm 0 W/m2
21:37 46.6 °F /  8.1 °C 30.4 °F /  -0.9 °C 30.1in /  1020.3hPa NNW 0.9mph /  1.4km/h 3mph /  4.8km/h 53% 0in /  0.0mm 0 W/m2
21:42 46.6 °F /  8.1 °C 30.4 °F /  -0.9 °C 30.1in /  1020.3hPa West 2.9mph /  4.7km/h 3mph /  4.8km/h 53% 0in /  0.0mm 0 W/m2
21:47 46.2 °F /  7.9 °C 30 °F /  -1.1 °C 30.1in /  1020.3hPa North 4mph /  6.4km/h 6mph /  9.7km/h 53% 0in /  0.0mm 0 W/m2
21:52 46 °F /  7.8 °C 29.5 °F /  -1.4 °C 30.1in /  1020.7hPa Calm   9mph /  14.5km/h 52% 0in /  0.0mm 0 W/m2
21:57 46 °F /  7.8 °C 29.8 °F /  -1.2 °C 30.1in /  1020.7hPa NW 2mph /  3.2km/h 10mph /  16.1km/h 53% 0in /  0.0mm 0 W/m2
22:02 45.9 °F /  7.7 °C 29.7 °F /  -1.3 °C 30.1in /  1020.7hPa NNE 2.9mph /  4.7km/h 5mph /  8km/h 53% 0in /  0.0mm 0 W/m2
22:07 45.7 °F /  7.6 °C 30 °F /  -1.1 °C 30.1in /  1020.7hPa WNW 2mph /  3.2km/h 10mph /  16.1km/h 54% 0in /  0.0mm 0 W/m2
22:12 45.5 °F /  7.5 °C 29.8 °F /  -1.2 °C 30.1in /  1020.7hPa NNW 4mph /  6.4km/h 6mph /  9.7km/h 54% 0in /  0.0mm 0 W/m2
22:17 45.3 °F /  7.4 °C 29.7 °F /  -1.3 °C 30.2in /  1021.0hPa NNW 2mph /  3.2km/h 3mph /  4.8km/h 54% 0in /  0.0mm 0 W/m2
22:22 45.1 °F /  7.3 °C 30 °F /  -1.1 °C 30.2in /  1021.0hPa NNE 2mph /  3.2km/h 4mph /  6.4km/h 55% 0in /  0.0mm 0 W/m2
22:27 45 °F /  7.2 °C 29.8 °F /  -1.2 °C 30.2in /  1021.0hPa NNE 2.9mph /  4.7km/h 5mph /  8km/h 55% 0in /  0.0mm 0 W/m2
22:32 45 °F /  7.2 °C 29.8 °F /  -1.2 °C 30.2in /  1021.0hPa NNE 0.9mph /  1.4km/h 5mph /  8km/h 55% 0in /  0.0mm 0 W/m2
22:38 44.8 °F /  7.1 °C 30 °F /  -1.1 °C 30.2in /  1021.3hPa West 0.9mph /  1.4km/h 3mph /  4.8km/h 56% 0in /  0.0mm 0 W/m2
22:43 44.4 °F /  6.9 °C 29.7 °F /  -1.3 °C 30.2in /  1021.3hPa North 4.9mph /  7.9km/h 5mph /  8km/h 56% 0in /  0.0mm 0 W/m2
22:48 44.4 °F /  6.9 °C 30.2 °F /  -1 °C 30.2in /  1021.3hPa NE 2mph /  3.2km/h 4mph /  6.4km/h 57% 0in /  0.0mm 0 W/m2
22:53 44.2 °F /  6.8 °C 30 °F /  -1.1 °C 30.2in /  1021.3hPa NNE 2mph /  3.2km/h 5mph /  8km/h 57% 0in /  0.0mm 0 W/m2
22:58 44.1 °F /  6.7 °C 29.8 °F /  -1.2 °C 30.2in /  1021.3hPa WSW 0.9mph /  1.4km/h 3mph /  4.8km/h 57% 0in /  0.0mm 0 W/m2
23:03 44.1 °F /  6.7 °C 29.8 °F /  -1.2 °C 30.2in /  1021.3hPa NE 0.9mph /  1.4km/h 4mph /  6.4km/h 57% 0in /  0.0mm 0 W/m2
23:08 43.9 °F /  6.6 °C 29.7 °F /  -1.3 °C 30.2in /  1021.3hPa NNW 2.9mph /  4.7km/h 3mph /  4.8km/h 57% 0in /  0.0mm 0 W/m2
23:13 43.5 °F /  6.4 °C 29.7 °F /  -1.3 °C 30.2in /  1021.7hPa WSW 2mph /  3.2km/h 3mph /  4.8km/h 58% 0in /  0.0mm 0 W/m2
23:18 43.5 °F /  6.4 °C 29.7 °F /  -1.3 °C 30.2in /  1021.7hPa NNW 2mph /  3.2km/h 9mph /  14.5km/h 58% 0in /  0.0mm 0 W/m2
23:23 43.5 °F /  6.4 °C 29.7 °F /  -1.3 °C 30.2in /  1021.7hPa Calm   2mph /  3.2km/h 58% 0in /  0.0mm 0 W/m2
23:28 43.3 °F /  6.3 °C 29.5 °F /  -1.4 °C 30.2in /  1022.0hPa WNW 2mph /  3.2km/h 3mph /  4.8km/h 58% 0in /  0.0mm 0 W/m2
23:33 43.2 °F /  6.2 °C 29.3 °F /  -1.5 °C 30.2in /  1022.0hPa West 0.9mph /  1.4km/h 3mph /  4.8km/h 58% 0in /  0.0mm 0 W/m2
23:38 43.2 °F /  6.2 °C 29.3 °F /  -1.5 °C 30.2in /  1022.0hPa Calm   6mph /  9.7km/h 58% 0in /  0.0mm 0 W/m2
23:43 43.2 °F /  6.2 °C 29.3 °F /  -1.5 °C 30.2in /  1022.0hPa NW 6mph /  9.7km/h 6mph /  9.7km/h 58% 0in /  0.0mm 0 W/m2
23:48 43.2 °F /  6.2 °C 29.3 °F /  -1.5 °C 30.2in /  1022.0hPa Calm   2mph /  3.2km/h 58% 0in /  0.0mm 0 W/m2
23:53 43 °F /  6.1 °C 29.3 °F /  -1.5 °C 30.2in /  1022.0hPa SW 4mph /  6.4km/h 4mph /  6.4km/h 58% 0in /  0.0mm 0 W/m2
23:59 42.8 °F /  6 °C 29.1 °F /  -1.6 °C 30.2in /  1022.0hPa WSW 0.9mph /  1.4km/h 2mph /  3.2km/h 58% 0in /  0.0mm 0 W/m2
Juneau County Weather
Compliments of Weather Underground - 2 mb